Time;durP1;ratioP1;P1;durP2;ratioP2;P2;SDS_P1;SDS_P2;PMS_P1;PMS_P2;Temp;Humidity;BMP_temperature;BMP_pressure;BME280_temperature;BME280_humidity;BME280_pressure;Samples;Min_cycle;Max_cycle;Signal;HPM_P1;HPM_P2
2021/03/12 00:00:40;;;;;;;12.97;6.87;;;;;;;-2.56;60.62;99730.86;128199;1112;22897;-60
2021/03/12 00:03:16;;;;;;;10.73;5.97;;;;;;;-2.53;60.02;99723.36;128308;1111;23039;-60
2021/03/12 00:05:48;;;;;;;15.77;7.23;;;;;;;-2.53;59.80;99726.03;128208;1111;22836;-60
2021/03/12 00:08:15;;;;;;;13.07;7.50;;;;;;;-2.51;60.30;99728.53;128355;1112;23412;-60
2021/03/12 00:10:48;;;;;;;12.20;7.23;;;;;;;-2.54;60.21;99724.36;128346;1111;22833;-60
2021/03/12 00:13:18;;;;;;;13.53;7.93;;;;;;;-2.57;60.41;99729.19;128190;1111;22904;-60
2021/03/12 00:15:46;;;;;;;14.50;7.83;;;;;;;-2.59;59.76;99725.86;128334;1111;22892;-60
2021/03/12 00:18:18;;;;;;;11.17;6.97;;;;;;;-2.60;59.92;99706.39;128143;1111;22922;-60
2021/03/12 00:20:46;;;;;;;25.70;7.13;;;;;;;-2.60;60.37;99709.05;128290;1108;23955;-60
2021/03/12 00:23:13;;;;;;;19.03;8.53;;;;;;;-2.58;60.22;99703.52;128233;1108;23639;-60
2021/03/12 00:25:43;;;;;;;14.63;7.60;;;;;;;-2.62;60.20;99700.38;128330;1108;25794;-60
2021/03/12 00:28:12;;;;;;;13.97;7.20;;;;;;;-2.65;60.11;99690.05;128179;1108;24396;-60
2021/03/12 00:30:40;;;;;;;21.33;11.40;;;;;;;-2.67;59.65;99683.21;128328;1108;23622;-60
2021/03/12 00:33:08;;;;;;;26.10;13.00;;;;;;;-2.70;60.47;99684.38;128134;1108;22861;-60
2021/03/12 00:35:38;;;;;;;18.37;9.80;;;;;;;-2.71;60.38;99685.38;128374;1107;22835;-64
2021/03/12 00:38:06;;;;;;;14.43;8.50;;;;;;;-2.72;59.87;99689.05;128178;1108;22972;-64
2021/03/12 00:41:01;;;;;;;16.90;7.57;;;;;;;-2.71;59.89;99693.38;128282;1109;22996;-64
2021/03/12 00:43:34;;;;;;;18.73;6.63;;;;;;;-2.69;60.67;99678.05;128226;1109;23012;-65
2021/03/12 00:46:05;;;;;;;15.17;6.77;;;;;;;-2.68;59.85;99668.21;128315;1109;23565;-63
2021/03/12 00:48:33;;;;;;;19.97;7.87;;;;;;;-2.68;60.59;99669.05;128182;1107;22917;-62
2021/03/12 00:51:02;;;;;;;21.17;7.23;;;;;;;-2.67;60.57;99657.37;128350;1108;23432;-63
2021/03/12 00:53:44;;;;;;;14.53;6.83;;;;;;;-2.69;59.75;99659.38;128185;1108;22982;-63
2021/03/12 00:56:11;;;;;;;15.83;7.30;;;;;;;-2.69;60.56;99647.88;128255;1108;22883;-62
2021/03/12 00:58:41;;;;;;;13.67;7.23;;;;;;;-2.69;60.22;99655.88;128242;1108;22811;-62
2021/03/12 01:01:09;;;;;;;15.83;6.87;;;;;;;-2.72;59.78;99651.70;128360;1108;26189;-61
2021/03/12 01:03:39;;;;;;;14.27;7.10;;;;;;;-2.72;59.72;99629.55;128220;1108;23718;-61
2021/03/12 01:06:10;;;;;;;12.65;7.10;;;;;;;-2.71;59.98;99629.38;126816;1109;23020;-55
2021/03/12 01:08:59;;;;;;;14.37;7.70;;;;;;;-2.71;60.38;99600.05;128210;1109;23010;-56
2021/03/12 01:11:29;;;;;;;12.17;7.13;;;;;;;-2.72;59.67;99621.55;128334;1108;22850;-57
2021/03/12 01:13:57;;;;;;;12.70;7.50;;;;;;;-2.71;59.99;99609.88;128211;1108;24883;-57
2021/03/12 01:16:28;;;;;;;14.93;6.93;;;;;;;-2.70;60.37;99617.71;128279;1108;22910;-56
2021/03/12 01:18:58;;;;;;;18.13;8.50;;;;;;;-2.70;59.92;99591.05;128268;1108;22940;-57
2021/03/12 01:21:28;;;;;;;12.10;7.23;;;;;;;-2.69;60.11;99594.55;128315;1108;22827;-57
2021/03/12 01:23:57;;;;;;;17.23;7.20;;;;;;;-2.71;60.13;99594.72;128206;1108;22945;-56
2021/03/12 01:26:25;;;;;;;12.83;6.20;;;;;;;-2.72;59.73;99590.37;128330;1108;22858;-56
2021/03/12 01:29:07;;;;;;;10.80;6.17;;;;;;;-2.74;60.14;99616.38;128230;1108;24375;-57
2021/03/12 01:31:44;;;;;;;13.93;5.65;;;;;;;-2.75;60.02;99613.91;128370;1108;22969;-57
2021/03/12 01:34:14;;;;;;;17.03;7.43;;;;;;;-2.73;60.24;99619.87;128199;1108;22847;-57
2021/03/12 01:36:42;;;;;;;13.73;6.57;;;;;;;-2.72;59.29;99632.21;128267;1108;22823;-57
2021/03/12 01:39:10;;;;;;;13.85;6.50;;;;;;;-2.69;58.94;99621.21;128134;1108;22942;-55
2021/03/12 01:41:38;;;;;;;13.63;7.03;;;;;;;-2.71;59.26;99634.71;128147;1108;24518;-57
2021/03/12 01:44:13;;;;;;;11.67;6.47;;;;;;;-2.72;59.08;99624.22;128375;1107;22948;-57
2021/03/12 01:46:40;;;;;;;14.03;5.63;;;;;;;-2.74;59.96;99616.38;128127;1109;23610;-55
2021/03/12 01:49:08;;;;;;;13.57;7.00;;;;;;;-2.74;59.29;99610.25;128301;1108;22983;-56
2021/03/12 01:51:36;;;;;;;15.37;6.60;;;;;;;-2.78;60.34;99604.41;128263;1108;22884;-55
2021/03/12 01:54:04;;;;;;;11.97;6.80;;;;;;;-2.80;59.52;99589.59;128296;1109;23447;-56
2021/03/12 01:56:31;;;;;;;11.93;6.10;;;;;;;-2.81;60.14;99587.92;128190;1108;22969;-56
2021/03/12 01:59:05;;;;;;;13.57;6.40;;;;;;;-2.83;59.72;99556.09;128271;1108;22853;-55
2021/03/12 02:01:40;;;;;;;13.00;6.53;;;;;;;-2.86;60.18;99556.43;128186;1108;22848;-55
2021/03/12 02:04:14;;;;;;;14.77;6.47;;;;;;;-2.89;60.38;99570.96;128379;1108;22959;-55
2021/03/12 02:06:51;;;;;;;14.17;6.70;;;;;;;-2.91;60.34;99567.63;128212;1108;22962;-56
2021/03/12 02:09:19;;;;;;;16.00;6.83;;;;;;;-2.92;59.69;99563.30;128267;1108;22857;-55
2021/03/12 02:11:53;;;;;;;10.23;6.40;;;;;;;-2.92;59.88;99557.97;128192;1108;23178;-55
2021/03/12 02:14:26;;;;;;;15.23;6.57;;;;;;;-2.90;60.38;99557.80;128324;1108;22855;-55
2021/03/12 02:16:57;;;;;;;20.13;7.13;;;;;;;-2.91;60.40;99550.80;128151;1109;23010;-59
2021/03/12 02:19:47;;;;;;;14.80;7.03;;;;;;;-2.93;59.88;99558.97;128341;1109;22842;-59
2021/03/12 02:22:15;;;;;;;19.00;6.45;;;;;;;-2.94;59.89;99551.97;128201;1107;23085;-59
2021/03/12 02:24:51;;;;;;;14.07;6.43;;;;;;;-3.09;59.80;99523.52;128297;1109;23753;-62
2021/03/12 02:27:26;;;;;;;14.97;7.37;;;;;;;-3.02;60.83;99521.83;128155;1109;22811;-59
2021/03/12 02:29:56;;;;;;;12.33;6.43;;;;;;;-3.05;60.59;99517.69;128318;1109;22905;-59
2021/03/12 02:32:32;;;;;;;13.87;6.20;;;;;;;-3.02;61.29;99517.33;128198;1108;22992;-59
2021/03/12 02:35:02;;;;;;;10.83;6.10;;;;;;;-3.01;60.95;99502.16;128305;1108;23026;-59
2021/03/12 02:37:30;;;;;;;16.57;6.63;;;;;;;-3.03;60.82;99515.66;128200;1109;23038;-59
2021/03/12 02:39:58;;;;;;;19.50;7.37;;;;;;;-3.02;60.37;99509.33;128297;1108;22898;-59
2021/03/12 02:42:36;;;;;;;16.60;6.70;;;;;;;-3.04;60.99;99522.02;128173;1108;23712;-59
2021/03/12 02:45:05;;;;;;;11.67;6.10;;;;;;;-3.04;60.13;99529.19;128286;1108;23444;-59
2021/03/12 02:47:39;;;;;;;16.50;8.00;;;;;;;-3.06;60.03;99537.34;128236;1108;22976;-63
2021/03/12 02:50:11;;;;;;;10.47;6.00;;;;;;;-3.05;60.92;99532.85;128328;1109;22849;-63
2021/03/12 02:52:39;;;;;;;12.37;6.90;;;;;;;-3.05;61.07;99520.36;128217;1108;22900;-63
2021/03/12 02:55:08;;;;;;;10.33;6.87;;;;;;;-3.03;60.93;99512.20;128352;1109;22983;-63
2021/03/12 02:57:45;;;;;;;13.00;6.25;;;;;;;-3.05;60.35;99500.88;128203;1109;22922;-61
2021/03/12 03:00:14;;;;;;;13.10;7.07;;;;;;;-3.06;60.98;99502.70;128374;1108;23416;-62
2021/03/12 03:03:00;;;;;;;17.00;6.60;;;;;;;-3.06;60.89;99512.53;128206;1108;23111;-63
2021/03/12 03:05:42;;;;;;;13.13;7.30;;;;;;;-3.10;60.21;99504.04;128320;1109;22895;-63
2021/03/12 03:08:11;;;;;;;13.37;6.50;;;;;;;-3.11;60.91;99498.87;128220;1108;22912;-63
2021/03/12 03:10:39;;;;;;;22.10;7.20;;;;;;;-3.13;60.30;99498.21;128276;1108;22911;-63
2021/03/12 03:13:08;;;;;;;12.33;6.77;;;;;;;-3.16;60.28;99490.55;128176;1108;23507;-63
2021/03/12 03:15:35;;;;;;;14.07;6.83;;;;;;;-3.18;61.19;99488.09;128342;1109;22952;-55
2021/03/12 03:18:07;;;;;;;14.10;6.90;;;;;;;-3.17;61.00;99487.05;128298;1108;24076;-56
2021/03/12 03:20:39;;;;;;;15.40;6.97;;;;;;;-3.18;61.12;99489.92;128315;1108;22838;-55
2021/03/12 03:23:08;;;;;;;14.63;6.90;;;;;;;-3.19;61.45;99480.27;128299;1109;22923;-56
2021/03/12 03:25:36;;;;;;;15.90;7.00;;;;;;;-3.17;61.08;99491.59;128151;1108;22896;-56
2021/03/12 03:28:07;;;;;;;14.87;6.40;;;;;;;-3.19;60.34;99488.26;128275;1108;22846;-56
2021/03/12 03:30:35;;;;;;;15.27;7.90;;;;;;;-3.20;60.14;99476.77;128168;1108;22847;-56
2021/03/12 03:33:09;;;;;;;12.97;6.97;;;;;;;-3.21;60.20;99485.76;128305;1108;22839;-56
2021/03/12 03:35:37;;;;;;;9.53;6.57;;;;;;;-3.24;61.20;99470.11;128258;1108;22881;-56
2021/03/12 03:38:05;;;;;;;16.80;7.00;;;;;;;-3.27;61.06;99465.95;128297;1107;22857;-56
2021/03/12 03:40:32;;;;;;;14.93;7.40;;;;;;;-3.28;60.91;99463.45;128130;1109;23135;-56
2021/03/12 03:43:01;;;;;;;13.97;6.83;;;;;;;-3.31;61.12;99461.13;128279;1107;22821;-56
2021/03/12 03:45:29;;;;;;;14.13;7.10;;;;;;;-3.36;60.04;99458.99;128190;1108;22861;-56
2021/03/12 03:48:08;;;;;;;17.80;6.93;;;;;;;-3.36;60.52;99453.66;128312;1109;22808;-56
2021/03/12 03:50:37;;;;;;;13.37;7.03;;;;;;;-3.36;60.46;99439.52;128196;1108;22942;-56
2021/03/12 03:53:05;;;;;;;12.90;7.00;;;;;;;-3.38;60.38;99429.03;128277;1108;22952;-56
2021/03/12 03:55:33;;;;;;;18.27;7.23;;;;;;;-3.37;60.36;99427.20;128259;1108;22917;-52
2021/03/12 03:58:03;;;;;;;14.20;8.03;;;;;;;-3.39;61.27;99443.34;128297;1108;22900;-52
2021/03/12 04:00:31;;;;;;;18.20;8.27;;;;;;;-3.45;61.64;99420.05;128191;1108;22984;-52
2021/03/12 04:03:02;;;;;;;15.20;7.77;;;;;;;-3.47;61.40;99431.89;128296;1108;22908;-51
2021/03/12 04:05:32;;;;;;;15.73;6.87;;;;;;;-3.52;60.19;99444.87;128241;1109;23608;-51
2021/03/12 04:08:00;;;;;;;13.10;6.80;;;;;;;-3.53;60.74;99451.20;128326;1107;23044;-51
2021/03/12 04:10:29;;;;;;;13.53;7.70;;;;;;;-3.56;60.83;99452.37;128098;1108;22889;-52
2021/03/12 04:12:56;;;;;;;16.90;7.17;;;;;;;-3.68;60.94;99435.09;128219;1108;22847;-51
2021/03/12 04:15:24;;;;;;;17.20;8.13;;;;;;;-3.58;61.11;99441.88;128178;1108;23030;-51
2021/03/12 04:17:52;;;;;;;13.63;6.43;;;;;;;-3.58;60.81;99463.19;128322;1108;22999;-51
2021/03/12 04:20:20;;;;;;;13.00;7.00;;;;;;;-3.55;61.09;99470.01;128321;1108;22920;-51
2021/03/12 04:22:48;;;;;;;12.90;7.17;;;;;;;-3.54;60.56;99447.70;128232;1109;23112;-51
2021/03/12 04:25:17;;;;;;;14.43;6.90;;;;;;;-3.53;61.03;99449.38;128279;1108;22825;-55
2021/03/12 04:27:45;;;;;;;12.60;6.80;;;;;;;-3.52;61.24;99451.03;128191;1108;22969;-56
2021/03/12 04:30:13;;;;;;;11.67;6.30;;;;;;;-3.52;60.64;99450.20;128319;1109;23810;-56
2021/03/12 04:32:41;;;;;;;16.80;6.93;;;;;;;-3.53;60.55;99449.38;128213;1109;22818;-56
2021/03/12 04:35:09;;;;;;;12.43;6.50;;;;;;;-3.54;61.35;99446.88;128318;1108;22914;-56
2021/03/12 04:37:37;;;;;;;17.47;7.60;;;;;;;-3.56;60.58;99455.03;128167;1108;22837;-56
2021/03/12 04:40:07;;;;;;;16.87;6.50;;;;;;;-3.58;60.22;99465.02;128328;1109;23752;-56
2021/03/12 04:42:34;;;;;;;12.17;6.97;;;;;;;-3.54;61.60;99457.52;128188;1109;22870;-56
2021/03/12 04:45:05;;;;;;;13.20;7.30;;;;;;;-3.52;60.83;99469.67;128350;1108;22891;-56
2021/03/12 04:47:33;;;;;;;15.87;7.10;;;;;;;-3.51;61.68;99473.17;128181;1108;24083;-56
2021/03/12 04:50:05;;;;;;;17.70;7.30;;;;;;;-3.51;60.36;99476.67;128262;1109;22849;-56
2021/03/12 04:52:32;;;;;;;13.63;6.10;;;;;;;-3.52;60.50;99484.82;128195;1107;22893;-56
2021/03/12 04:55:02;;;;;;;23.17;7.37;;;;;;;-3.54;59.98;99484.16;128241;1109;22907;-56
2021/03/12 04:57:29;;;;;;;17.80;7.47;;;;;;;-3.56;60.46;99463.02;128162;1108;23002;-52
2021/03/12 04:59:57;;;;;;;12.37;7.17;;;;;;;-3.53;60.04;99468.02;128290;1108;22840;-51
2021/03/12 05:02:25;;;;;;;14.37;7.07;;;;;;;-3.55;60.77;99454.03;128214;1109;23423;-52
2021/03/12 05:04:58;;;;;;;15.03;7.40;;;;;;;-3.53;60.99;99459.19;128324;1108;22964;-52
2021/03/12 05:07:26;;;;;;;16.30;7.30;;;;;;;-3.74;60.92;99430.42;128224;1108;23659;-51
2021/03/12 05:10:09;;;;;;;12.57;7.47;;;;;;;-3.60;60.68;99451.86;128334;1108;22857;-52
2021/03/12 05:12:37;;;;;;;14.57;8.00;;;;;;;-3.62;60.77;99450.40;128206;1108;22837;-51
2021/03/12 05:15:26;;;;;;;15.20;8.53;;;;;;;-3.64;60.50;99468.37;128272;1109;22922;-51
2021/03/12 05:17:53;;;;;;;18.87;8.57;;;;;;;-3.63;61.62;99478.02;128197;1108;22911;-52
2021/03/12 05:20:21;;;;;;;15.87;7.10;;;;;;;-3.65;61.18;99470.20;128311;1108;22892;-52
2021/03/12 05:22:49;;;;;;;24.37;7.40;;;;;;;-3.61;61.15;99468.04;128268;1108;23432;-52
2021/03/12 05:25:18;;;;;;;17.50;7.67;;;;;;;-3.60;60.67;99448.38;128051;1108;22914;-52
2021/03/12 05:27:45;;;;;;;15.77;7.60;;;;;;;-3.59;60.93;99439.39;124624;1108;23177;-54
2021/03/12 05:30:13;;;;;;;20.07;9.23;;;;;;;-3.60;61.26;99433.23;124568;1109;23026;-55
2021/03/12 05:32:41;;;;;;;16.77;7.73;;;;;;;-3.57;60.96;99442.71;128349;1108;22803;-53
2021/03/12 05:35:10;;;;;;;14.40;8.17;;;;;;;-3.58;61.67;99446.38;128228;1109;22912;-53
2021/03/12 05:37:37;;;;;;;12.40;7.60;;;;;;;-3.58;61.92;99433.06;128276;1108;22854;-54
2021/03/12 05:40:06;;;;;;;18.33;7.63;;;;;;;-3.60;60.90;99451.03;128105;1108;22872;-53
2021/03/12 05:42:36;;;;;;;15.63;8.07;;;;;;;-3.66;60.96;99436.59;128326;1108;22933;-53
2021/03/12 05:45:04;;;;;;;19.20;8.97;;;;;;;-3.63;62.05;99443.41;128196;1108;22956;-53
2021/03/12 05:47:36;;;;;;;16.00;7.77;;;;;;;-3.63;61.57;99435.42;128288;1108;23037;-53
2021/03/12 05:50:05;;;;;;;19.23;8.13;;;;;;;-3.64;60.78;99447.07;128205;1109;22994;-53
2021/03/12 05:52:33;;;;;;;18.67;8.47;;;;;;;-3.60;61.23;99441.22;128276;1108;23428;-53
2021/03/12 05:55:01;;;;;;;12.83;7.73;;;;;;;-3.57;61.25;99440.05;128143;1109;22892;-54
2021/03/12 05:57:29;;;;;;;20.13;8.27;;;;;;;-3.54;62.05;99434.39;128299;1108;22837;-54
2021/03/12 05:59:58;;;;;;;22.97;10.87;;;;;;;-3.51;61.26;99431.39;128215;1108;22896;-54
2021/03/12 06:02:26;;;;;;;23.13;10.00;;;;;;;-3.50;61.30;99427.73;128290;1109;23092;-54
2021/03/12 06:04:54;;;;;;;22.87;10.53;;;;;;;-3.47;60.92;99427.40;128215;1108;22842;-54
2021/03/12 06:07:22;;;;;;;16.70;9.30;;;;;;;-3.46;60.90;99421.05;124838;1109;23059;-53
2021/03/12 06:09:50;;;;;;;26.13;9.00;;;;;;;-3.45;61.09;99422.70;128156;1108;22901;-55
2021/03/12 06:12:18;;;;;;;21.30;9.93;;;;;;;-3.42;60.27;99416.21;128235;1108;22842;-54
2021/03/12 06:14:56;;;;;;;18.83;9.30;;;;;;;-3.42;60.45;99413.55;128344;1109;22801;-54
2021/03/12 06:17:47;;;;;;;18.00;10.20;;;;;;;-3.39;61.77;99398.06;128325;1109;23602;-54
2021/03/12 06:20:29;;;;;;;21.90;10.73;;;;;;;-3.36;61.16;99387.08;128193;1108;23556;-55
2021/03/12 06:22:58;;;;;;;22.40;8.90;;;;;;;-3.33;61.20;99376.08;128310;1108;22956;-54
2021/03/12 06:25:27;;;;;;;23.77;10.33;;;;;;;-3.33;61.14;99376.08;128225;1108;22823;-54
2021/03/12 06:28:23;;;;;;;19.57;9.50;;;;;;;-3.32;60.72;99374.25;128314;1109;22885;-55
2021/03/12 06:31:24;;;;;;;22.83;10.80;;;;;;;-3.30;60.34;99381.04;128196;1108;23672;-54
2021/03/12 06:34:27;;;;;;;15.40;8.33;;;;;;;-3.24;61.23;99376.86;128312;1108;23028;-55
2021/03/12 06:37:23;;;;;;;22.67;9.63;;;;;;;-3.19;59.59;99387.02;128232;1108;23750;-56
2021/03/12 06:40:23;;;;;;;22.40;11.07;;;;;;;-3.21;60.81;99372.03;128302;1107;24099;-56
2021/03/12 06:43:12;;;;;;;17.03;9.40;;;;;;;-3.18;60.83;99370.86;128200;1107;24259;-56
2021/03/12 06:45:40;;;;;;;22.10;10.13;;;;;;;-3.16;60.40;99371.48;128297;1108;23596;-57
2021/03/12 06:48:28;;;;;;;22.67;8.20;;;;;;;-3.12;60.32;99363.98;128210;1108;23458;-57
2021/03/12 06:51:12;;;;;;;21.70;9.77;;;;;;;-3.09;60.46;99374.30;128322;1108;22849;-57
2021/03/12 06:53:41;;;;;;;14.33;7.80;;;;;;;-3.05;59.70;99383.61;128209;1108;22847;-60
2021/03/12 06:56:09;;;;;;;23.77;9.20;;;;;;;-3.05;58.97;99379.11;128283;1108;23485;-57
2021/03/12 06:58:57;;;;;;;17.43;9.20;;;;;;;-3.02;59.34;99372.58;128178;1108;23633;-56
2021/03/12 07:01:26;;;;;;;22.47;9.20;;;;;;;-2.99;59.85;99362.41;128296;1108;22989;-58
2021/03/12 07:04:09;;;;;;;15.53;8.03;;;;;;;-2.94;59.09;99381.38;128147;1109;23004;-57
2021/03/12 07:07:09;;;;;;;17.37;7.63;;;;;;;-2.95;59.40;99358.39;128165;1108;22903;-54
2021/03/12 07:09:38;;;;;;;22.30;8.90;;;;;;;-2.93;58.32;99369.72;128275;1108;22897;-54
2021/03/12 07:12:18;;;;;;;21.27;9.50;;;;;;;-2.90;59.45;99361.37;128214;1109;22909;-55
2021/03/12 07:14:51;;;;;;;18.37;8.50;;;;;;;-2.85;59.37;99364.33;128309;1108;22891;-54
2021/03/12 07:17:24;;;;;;;16.13;7.87;;;;;;;-2.82;58.26;99357.81;128221;1108;22908;-55
2021/03/12 07:19:57;;;;;;;26.90;9.33;;;;;;;-2.80;58.88;99347.81;128283;1109;23032;-54
2021/03/12 07:22:26;;;;;;;17.00;8.43;;;;;;;-2.81;58.04;99321.33;128281;1108;23049;-55
2021/03/12 07:24:54;;;;;;;18.83;8.70;;;;;;;-2.85;59.09;99332.33;128166;1108;22908;-54
2021/03/12 07:27:22;;;;;;;14.90;7.67;;;;;;;-2.86;59.05;99336.00;128297;1108;22815;-55
2021/03/12 07:30:10;;;;;;;19.75;7.53;;;;;;;-2.84;59.10;99333.16;128254;1107;22938;-54
2021/03/12 07:32:41;;;;;;;21.67;9.00;;;;;;;-2.82;59.08;99335.66;128289;1109;22866;-61
2021/03/12 07:35:13;;;;;;;29.37;11.90;;;;;;;-2.83;58.92;99350.82;126380;1103;26070;-58
2021/03/12 07:37:59;;;;;;;19.90;8.90;;;;;;;-2.78;59.11;99356.47;128330;1109;22926;-60
2021/03/12 07:40:30;;;;;;;14.50;8.20;;;;;;;-2.76;59.27;99357.12;128227;1108;22833;-57
2021/03/12 07:43:03;;;;;;;10.80;6.80;;;;;;;-2.75;59.18;99340.13;128245;1109;23003;-62
2021/03/12 07:45:47;;;;;;;16.03;7.07;;;;;;;-2.73;58.63;99340.75;128098;1108;23693;-59
2021/03/12 07:48:15;;;;;;;19.20;7.30;;;;;;;-2.71;58.81;99316.58;128256;1109;22805;-59
2021/03/12 07:51:16;;;;;;;15.30;7.57;;;;;;;-2.69;58.53;99302.06;128216;1107;22874;-59
2021/03/12 07:53:55;;;;;;;15.00;7.13;;;;;;;-2.69;59.33;99299.40;128262;1109;22837;-58
2021/03/12 07:56:43;;;;;;;16.83;6.73;;;;;;;-2.66;59.08;99306.22;128367;1109;22836;-59
2021/03/12 07:59:46;;;;;;;21.97;7.17;;;;;;;-2.65;58.92;99290.04;128194;1109;23046;-57
2021/03/12 08:02:54;;;;;;;16.03;7.20;;;;;;;-2.65;58.63;99299.87;128310;1108;23687;-56
2021/03/12 08:05:41;;;;;;;14.97;6.53;;;;;;;-2.64;59.03;99309.54;128174;1108;23014;-54
2021/03/12 08:08:39;;;;;;;15.67;6.63;;;;;;;-2.64;59.31;99323.70;128312;1109;22853;-55
2021/03/12 08:11:36;;;;;;;14.78;9.03;;;;;;;-2.61;59.32;99326.02;128260;1109;22834;-54
2021/03/12 08:14:19;;;;;;;17.17;8.80;;;;;;;-2.58;58.61;99330.97;128260;1109;22837;-54
2021/03/12 08:17:00;;;;;;;18.43;7.87;;;;;;;-2.56;58.69;99323.63;128208;1109;22999;-54
2021/03/12 08:19:34;;;;;;;18.87;7.67;;;;;;;-2.52;58.78;99319.60;128305;1109;22872;-54
2021/03/12 08:22:42;;;;;;;20.10;8.73;;;;;;;-2.47;59.29;99307.57;128311;1108;22898;-54
2021/03/12 08:25:48;;;;;;;16.73;7.87;;;;;;;-2.44;59.12;99305.34;128160;1100;22930;-54
2021/03/12 08:28:34;;;;;;;22.07;7.83;;;;;;;-2.40;58.78;99303.98;128339;1108;22952;-55
2021/03/12 08:31:14;;;;;;;15.30;7.17;;;;;;;-2.37;59.11;99294.80;128275;1108;22982;-55
2021/03/12 08:33:52;;;;;;;28.03;8.27;;;;;;;-2.33;59.10;99296.11;128263;1107;22867;-55
2021/03/12 08:36:34;;;;;;;22.13;9.03;;;;;;;-2.28;59.27;99288.37;128203;1108;22988;-57
2021/03/12 08:39:26;;;;;;;20.60;8.87;;;;;;;-2.23;59.07;99288.66;128350;1109;22864;-56
2021/03/12 08:42:54;;;;;;;20.00;7.00;;;;;;;-2.21;58.85;99284.81;128194;1109;22932;-60
2021/03/12 08:45:45;;;;;;;19.80;7.23;;;;;;;-2.18;58.86;99265.77;128329;1108;22820;-58
2021/03/12 08:48:20;;;;;;;17.57;9.23;;;;;;;-2.15;58.65;99267.22;128315;1108;23322;-59
2021/03/12 08:51:07;;;;;;;21.77;10.37;;;;;;;-2.15;58.86;99276.05;128366;1109;22891;-58
2021/03/12 08:53:40;;;;;;;17.90;7.25;;;;;;;-2.14;58.94;99280.38;128346;1108;23722;-60
2021/03/12 08:56:09;;;;;;;37.80;12.10;;;;;;;-2.12;59.13;99261.52;128314;1109;22832;-57
2021/03/12 08:58:43;;;;;;;24.03;11.33;;;;;;;-2.11;59.04;99249.01;128313;1108;23831;-58
2021/03/12 09:01:20;;;;;;;16.47;7.60;;;;;;;-2.12;59.38;99264.19;128337;1109;23203;-57
2021/03/12 09:03:57;;;;;;;27.27;13.22;;;;;;;-2.14;58.71;99248.36;128371;1108;23771;-58
2021/03/12 09:06:43;;;;;;;33.67;16.30;;;;;;;-2.12;59.36;99256.19;128286;1109;22972;-57
2021/03/12 09:09:25;;;;;;;20.53;8.53;;;;;;;-2.11;59.70;99249.84;128413;1109;22903;-58
2021/03/12 09:12:14;;;;;;;18.73;8.27;;;;;;;-2.11;59.65;99243.67;128285;1108;22886;-58
2021/03/12 09:15:00;;;;;;;17.70;8.37;;;;;;;-2.12;59.25;99237.50;128326;1109;23160;-58
2021/03/12 09:17:38;;;;;;;14.85;7.55;;;;;;;-2.14;59.60;99223.51;124478;1109;23252;-57
2021/03/12 09:20:11;;;;;;;14.73;7.30;;;;;;;-2.12;59.17;99209.98;124398;1109;23221;-58
2021/03/12 09:22:50;;;;;;;14.30;7.93;;;;;;;-2.11;59.66;99208.97;128202;1109;22894;-58
2021/03/12 09:25:30;;;;;;;16.20;7.90;;;;;;;-2.11;59.75;99217.81;128252;1109;23049;-57
2021/03/12 09:28:14;;;;;;;16.47;7.23;;;;;;;-2.14;59.96;99221.67;128140;1111;22914;-58
2021/03/12 09:31:03;;;;;;;14.18;8.53;;;;;;;-2.18;59.94;99216.91;128316;1109;22859;-58
2021/03/12 09:33:43;;;;;;;14.97;8.27;;;;;;;-2.18;60.18;99224.91;128178;1109;22857;-59
2021/03/12 09:36:26;;;;;;;21.03;8.40;;;;;;;-2.18;60.26;99214.23;128262;1111;23622;-57
2021/03/12 09:39:20;;;;;;;19.87;7.37;;;;;;;-2.19;60.29;99207.24;128126;1111;23651;-59
2021/03/12 09:41:55;;;;;;;18.83;10.33;;;;;;;-2.18;60.54;99208.91;128216;1111;23637;-59
2021/03/12 09:44:24;;;;;;;14.03;6.50;;;;;;;-2.17;60.57;99208.72;128149;1110;22864;-58
2021/03/12 09:46:59;;;;;;;17.17;7.07;;;;;;;-2.12;60.88;99202.81;125167;1110;23250;-57
2021/03/12 09:49:44;;;;;;;14.70;7.70;;;;;;;-2.10;61.38;99199.96;123976;1110;23183;-57
2021/03/12 09:52:17;;;;;;;15.40;7.30;;;;;;;-2.09;61.43;99207.78;128276;1109;23024;-58
2021/03/12 09:54:57;;;;;;;16.80;7.20;;;;;;;-2.10;61.05;99203.45;128225;1109;24162;-59
2021/03/12 09:57:26;;;;;;;28.83;14.80;;;;;;;-2.12;60.87;99202.81;128353;1109;23482;-59
2021/03/12 09:59:58;;;;;;;19.20;8.13;;;;;;;-2.11;61.39;99201.80;128194;1109;22864;-58
2021/03/12 10:02:57;;;;;;;13.33;6.97;;;;;;;-2.15;61.13;99190.66;128369;1108;22880;-58
2021/03/12 10:05:39;;;;;;;10.90;6.10;;;;;;;-2.12;62.00;99184.13;128185;1108;22859;-59
2021/03/12 10:08:22;;;;;;;15.07;7.07;;;;;;;-2.09;61.72;99190.94;128365;1109;22895;-58
2021/03/12 10:10:59;;;;;;;20.48;7.58;;;;;;;-2.07;62.46;99186.25;128229;1108;22887;-58
2021/03/12 10:13:53;;;;;;;15.73;7.77;;;;;;;-2.03;62.74;99185.70;128353;1108;23070;-59
2021/03/12 10:16:41;;;;;;;19.87;8.30;;;;;;;-2.00;63.55;99192.48;128352;1108;22915;-58
2021/03/12 10:19:42;;;;;;;18.05;7.90;;;;;;;-2.03;64.52;99179.53;128313;1108;22954;-59
2021/03/12 10:22:22;;;;;;;19.77;8.63;;;;;;;-2.07;65.03;99188.92;128386;1108;23056;-59
2021/03/12 10:25:00;;;;;;;16.30;7.83;;;;;;;-2.12;65.50;99176.13;128169;1108;22923;-58
2021/03/12 10:27:32;;;;;;;18.17;7.63;;;;;;;-2.15;66.41;99185.31;128329;1108;22873;-58
2021/03/12 10:30:06;;;;;;;15.40;7.30;;;;;;;-2.15;67.99;99179.16;128243;1107;22891;-58
2021/03/12 10:32:40;;;;;;;18.47;7.70;;;;;;;-2.19;67.64;99180.56;128361;1108;22901;-58
2021/03/12 10:35:32;;;;;;;17.90;8.03;;;;;;;-2.24;68.77;99180.27;128304;1108;23426;-56
2021/03/12 10:38:12;;;;;;;18.63;8.83;;;;;;;-2.28;69.63;99178.98;128315;1108;22834;-58
2021/03/12 10:40:41;;;;;;;16.70;10.40;;;;;;;-2.31;70.51;99176.70;128221;1108;25200;-58
2021/03/12 10:43:18;;;;;;;17.67;8.33;;;;;;;-2.33;71.02;99178.72;128340;1109;23005;-58
2021/03/12 10:45:57;;;;;;;18.55;9.90;;;;;;;-2.36;71.19;99173.75;127364;1108;25748;-56
2021/03/12 10:48:28;;;;;;;20.10;8.10;;;;;;;-2.41;71.75;99168.13;124470;1108;23129;-57
2021/03/12 10:51:03;;;;;;;16.20;8.47;;;;;;;-2.46;72.24;99170.53;128243;1109;23234;-59
2021/03/12 10:53:45;;;;;;;22.43;8.27;;;;;;;-2.51;72.82;99168.41;128338;1109;23404;-59
2021/03/12 10:56:13;;;;;;;17.63;9.60;;;;;;;-2.53;72.61;99170.42;128196;1109;22856;-59
2021/03/12 10:58:42;;;;;;;13.33;7.53;;;;;;;-2.56;73.57;99173.45;128409;1108;22895;-58
2021/03/12 11:01:18;;;;;;;14.13;8.07;;;;;;;-2.60;74.07;99169.51;128226;1108;22888;-58
2021/03/12 11:03:46;;;;;;;16.03;8.27;;;;;;;-2.62;74.42;99183.02;128331;1108;23234;-59
2021/03/12 11:06:15;;;;;;;13.77;8.90;;;;;;;-2.61;74.33;99167.85;128382;1108;25607;-59
2021/03/12 11:08:43;;;;;;;17.30;8.85;;;;;;;-2.58;74.69;99170.13;128289;1109;23027;-58
2021/03/12 11:11:13;;;;;;;18.53;9.37;;;;;;;-2.57;74.80;99153.13;128304;1108;22866;-59
2021/03/12 11:13:42;;;;;;;16.93;9.27;;;;;;;-2.57;75.43;99147.78;128211;1109;22842;-59
2021/03/12 11:16:10;;;;;;;16.53;8.47;;;;;;;-2.57;76.26;99150.45;128313;1109;22875;-59
2021/03/12 11:18:39;;;;;;;19.37;8.73;;;;;;;-2.58;75.43;99162.95;128274;1108;22860;-58
2021/03/12 11:21:10;;;;;;;15.37;8.70;;;;;;;-2.57;75.88;99156.62;128336;1109;22920;-58
2021/03/12 11:23:38;;;;;;;18.27;9.10;;;;;;;-2.55;76.00;99153.77;128232;1108;22940;-63
2021/03/12 11:26:06;;;;;;;15.20;9.53;;;;;;;-2.49;76.02;99161.05;128360;1109;22915;-59
2021/03/12 11:28:34;;;;;;;15.53;9.03;;;;;;;-2.46;75.87;99143.86;128183;1109;22862;-58
2021/03/12 11:31:03;;;;;;;17.37;9.03;;;;;;;-2.47;76.35;99147.53;128349;1109;22882;-58
2021/03/12 11:33:30;;;;;;;15.97;9.07;;;;;;;-2.47;77.30;99147.53;128212;1109;22826;-57
2021/03/12 11:36:00;;;;;;;13.13;8.13;;;;;;;-2.47;77.34;99142.20;128351;1108;22831;-59
2021/03/12 11:40:27;;;;;;;16.10;8.27;;;;;;;-2.47;77.39;99126.20;124364;1109;23101;-54
2021/03/12 11:42:55;;;;;;;16.30;9.33;;;;;;;-2.53;77.27;99115.24;128220;1111;22918;-55
2021/03/12 11:45:23;;;;;;;16.90;9.57;;;;;;;-2.53;78.11;99111.75;128170;1110;22924;-55
2021/03/12 11:47:53;;;;;;;15.70;9.40;;;;;;;-2.54;77.28;99105.58;128283;1112;22933;-55
2021/03/12 11:50:40;;;;;;;18.30;9.27;;;;;;;-2.50;78.12;99112.21;128181;1110;23330;-56
2021/03/12 11:53:08;;;;;;;16.07;9.33;;;;;;;-2.46;78.32;99087.84;128297;1111;23481;-56